Time;durP1;ratioP1;P1;durP2;ratioP2;P2;SDS_P1;SDS_P2;PMS_P1;PMS_P2;Temp;Humidity;BMP_temperature;BMP_pressure;BME280_temperature;BME280_humidity;BME280_pressure;Samples;Min_cycle;Max_cycle;Signal;HPM_P1;HPM_P2
2023/05/20 00:00:07;;;;;;;7.40;4.60;;;;;;;21.06;45.00;100737.23;108163;1287;22032;-57
2023/05/20 00:02:33;;;;;;;6.50;4.30;;;;;;;21.05;44.98;100737.44;108201;1287;22063;-59
2023/05/20 00:04:59;;;;;;;8.30;4.50;;;;;;;21.03;44.94;100734.67;108086;1287;21990;-57
2023/05/20 00:07:25;;;;;;;5.20;4.10;;;;;;;21.02;44.99;100729.58;107832;1288;22018;-59
2023/05/20 00:09:50;;;;;;;7.50;4.70;;;;;;;21.01;45.06;100731.42;108112;1287;21998;-59
2023/05/20 00:12:16;;;;;;;10.50;4.80;;;;;;;20.99;44.90;100733.65;108112;1287;21986;-57
2023/05/20 00:14:41;;;;;;;6.10;4.40;;;;;;;20.98;45.01;100732.28;108100;1287;21990;-57
2023/05/20 00:17:07;;;;;;;9.40;4.80;;;;;;;20.97;45.15;100731.80;108123;1287;21990;-57
2023/05/20 00:19:34;;;;;;;5.10;3.80;;;;;;;20.96;45.00;100730.61;108106;1287;22011;-58
2023/05/20 00:22:00;;;;;;;10.70;5.00;;;;;;;20.94;45.07;100731.05;108136;1287;22006;-58
2023/05/20 00:24:26;;;;;;;7.90;4.90;;;;;;;20.92;45.06;100735.95;108127;1287;22457;-58
2023/05/20 00:26:52;;;;;;;8.90;4.90;;;;;;;20.93;45.09;100735.39;108090;1287;21982;-58
2023/05/20 00:29:20;;;;;;;9.00;5.30;;;;;;;20.91;45.08;100739.19;108184;1287;21991;-59
2023/05/20 00:31:46;;;;;;;10.30;5.00;;;;;;;20.91;45.13;100744.92;108111;1287;21989;-58
2023/05/20 00:34:11;;;;;;;8.40;5.60;;;;;;;20.91;45.04;100743.88;108113;1288;21982;-58
2023/05/20 00:36:37;;;;;;;10.90;5.60;;;;;;;20.90;45.06;100744.96;108112;1287;22048;-58
2023/05/20 00:39:03;;;;;;;10.60;4.90;;;;;;;20.91;44.99;100744.36;108171;1287;21994;-58
2023/05/20 00:41:29;;;;;;;7.60;4.60;;;;;;;20.93;45.01;100743.40;108091;1288;21998;-58
2023/05/20 00:43:55;;;;;;;9.20;5.50;;;;;;;20.94;44.97;100743.54;108121;1287;21987;-58
2023/05/20 00:46:22;;;;;;;9.40;5.80;;;;;;;20.95;45.07;100741.35;108149;1288;22001;-59
2023/05/20 00:48:47;;;;;;;10.70;5.30;;;;;;;20.94;45.15;100739.80;108111;1287;23065;-58
2023/05/20 00:51:14;;;;;;;8.20;5.40;;;;;;;20.92;45.14;100735.05;107883;1287;21975;-58
2023/05/20 00:53:39;;;;;;;10.60;5.90;;;;;;;20.92;45.18;100733.63;108160;1287;21995;-59
2023/05/20 00:56:06;;;;;;;18.20;6.40;;;;;;;20.92;45.18;100733.30;107948;1287;21995;-59
2023/05/20 00:58:35;;;;;;;11.10;5.90;;;;;;;20.92;45.26;100731.13;106633;1287;1002779;-58
2023/05/20 01:01:01;;;;;;;10.90;5.20;;;;;;;20.92;45.15;100732.23;108013;1287;21990;-59
2023/05/20 01:03:28;;;;;;;7.60;5.20;;;;;;;20.93;45.07;100730.90;108145;1287;21994;-58
2023/05/20 01:05:54;;;;;;;10.60;5.70;;;;;;;20.95;45.16;100729.90;108120;1287;22000;-58
2023/05/20 01:08:24;;;;;;;9.50;5.70;;;;;;;20.98;45.08;100733.88;108132;1287;22002;-59
2023/05/20 01:10:54;;;;;;;10.80;5.80;;;;;;;21.02;45.02;100731.17;108154;1287;21993;-59
2023/05/20 01:13:20;;;;;;;8.30;5.60;;;;;;;21.06;45.03;100730.95;108142;1287;22430;-59
2023/05/20 01:15:47;;;;;;;9.70;6.30;;;;;;;21.07;44.99;100729.13;107981;1287;22029;-60
2023/05/20 01:18:17;;;;;;;9.30;5.70;;;;;;;21.07;45.09;100725.95;108105;1287;22938;-58
2023/05/20 01:20:46;;;;;;;9.50;6.90;;;;;;;21.06;44.99;100724.52;108085;1288;21992;-58
2023/05/20 01:23:14;;;;;;;10.00;6.40;;;;;;;21.08;45.12;100723.71;108124;1287;23643;-58
2023/05/20 01:25:41;;;;;;;8.40;5.70;;;;;;;21.09;45.09;100722.08;108150;1287;21980;-58
2023/05/20 01:28:07;;;;;;;9.50;6.30;;;;;;;21.08;45.12;100721.58;108144;1286;21992;-59
2023/05/20 01:30:38;;;;;;;9.90;5.80;;;;;;;21.11;45.30;100724.84;107995;1287;21992;-59
2023/05/20 01:33:06;;;;;;;11.60;6.00;;;;;;;21.15;45.22;100730.17;108135;1287;21957;-58
2023/05/20 01:35:32;;;;;;;12.20;6.00;;;;;;;21.20;45.16;100730.07;108148;1288;21992;-60
2023/05/20 01:37:57;;;;;;;10.40;5.90;;;;;;;21.24;45.13;100732.19;107816;1287;22003;-58
2023/05/20 01:40:23;;;;;;;12.30;6.40;;;;;;;21.28;45.05;100734.88;107860;1287;22167;-59
2023/05/20 01:42:51;;;;;;;9.10;6.40;;;;;;;21.31;45.07;100733.13;107853;1287;22026;-60
2023/05/20 01:45:18;;;;;;;8.80;6.30;;;;;;;21.34;44.98;100740.96;107800;1288;21984;-58
2023/05/20 01:47:47;;;;;;;9.60;5.70;;;;;;;21.37;45.05;100741.52;108123;1287;21991;-59
2023/05/20 01:50:12;;;;;;;10.30;7.10;;;;;;;21.41;45.03;100741.31;108135;1287;22008;-59
2023/05/20 01:52:38;;;;;;;12.40;6.30;;;;;;;21.42;44.84;100740.90;108077;1287;21999;-59
2023/05/20 01:55:04;;;;;;;16.50;7.10;;;;;;;21.43;44.96;100740.31;108100;1287;22172;-57
2023/05/20 01:57:31;;;;;;;14.40;6.70;;;;;;;21.44;44.88;100738.33;108100;1287;22077;-59
2023/05/20 01:59:57;;;;;;;12.10;6.40;;;;;;;21.45;44.88;100740.95;108117;1287;22024;-58
2023/05/20 02:02:22;;;;;;;8.90;6.30;;;;;;;21.46;44.78;100746.08;108069;1287;22463;-59
2023/05/20 02:04:49;;;;;;;13.20;7.20;;;;;;;21.46;44.79;100749.27;108083;1287;21988;-59
2023/05/20 02:07:15;;;;;;;9.10;6.20;;;;;;;21.46;44.84;100746.61;108125;1287;22026;-59
2023/05/20 02:09:41;;;;;;;10.90;6.00;;;;;;;21.46;44.74;100744.13;108155;1287;21992;-59
2023/05/20 02:12:07;;;;;;;8.80;6.50;;;;;;;21.46;44.88;100749.27;108204;1287;21990;-59
2023/05/20 02:14:33;;;;;;;12.70;6.70;;;;;;;21.46;44.92;100750.73;108143;1287;23071;-58
2023/05/20 02:16:58;;;;;;;8.30;6.60;;;;;;;21.46;44.97;100748.57;108096;1287;21991;-58
2023/05/20 02:19:24;;;;;;;9.80;6.80;;;;;;;21.43;44.96;100752.10;108100;1287;21990;-58
2023/05/20 02:21:50;;;;;;;10.40;6.70;;;;;;;21.32;45.25;100752.36;108072;1288;22021;-58
2023/05/20 02:24:16;;;;;;;13.30;8.10;;;;;;;21.38;45.04;100752.71;108112;1287;21986;-59
2023/05/20 02:26:43;;;;;;;9.90;7.00;;;;;;;21.37;44.87;100753.86;108108;1287;21993;-59
2023/05/20 02:29:08;;;;;;;11.90;7.20;;;;;;;21.37;45.03;100753.70;108169;1287;21994;-58
2023/05/20 02:31:34;;;;;;;9.60;6.80;;;;;;;21.35;45.18;100754.48;108054;1284;23081;-59
2023/05/20 02:34:00;;;;;;;13.80;7.20;;;;;;;21.34;45.09;100755.63;108043;1284;21990;-58
2023/05/20 02:36:26;;;;;;;16.40;6.70;;;;;;;21.35;45.18;100752.72;108071;1288;21999;-59
2023/05/20 02:38:55;;;;;;;23.00;7.50;;;;;;;21.33;45.67;100756.72;108071;1287;21989;-59
2023/05/20 02:41:21;;;;;;;11.00;7.10;;;;;;;21.37;45.64;100762.23;108105;1287;21995;-57
2023/05/20 02:43:47;;;;;;;12.70;7.00;;;;;;;21.41;45.46;100759.88;108046;1287;22020;-59
2023/05/20 02:46:14;;;;;;;10.40;7.00;;;;;;;21.45;45.33;100758.10;108096;1287;22021;-58
2023/05/20 02:48:40;;;;;;;11.90;7.00;;;;;;;21.46;45.39;100759.27;108104;1287;21992;-58
2023/05/20 02:51:05;;;;;;;9.60;6.20;;;;;;;21.47;45.52;100756.36;108135;1287;22052;-58
2023/05/20 02:53:31;;;;;;;11.30;7.60;;;;;;;21.48;45.50;100759.20;108103;1287;22000;-58
2023/05/20 02:55:57;;;;;;;8.80;6.30;;;;;;;21.49;45.52;100763.40;108098;1287;22088;-60
2023/05/20 02:58:25;;;;;;;12.30;6.00;;;;;;;21.51;45.58;100757.26;108117;1287;22004;-57
2023/05/20 03:00:51;;;;;;;9.30;6.00;;;;;;;21.53;45.63;100755.35;108090;1287;22051;-59
2023/05/20 03:03:17;;;;;;;10.10;6.40;;;;;;;21.58;45.82;100759.91;108119;1287;21978;-58
2023/05/20 03:05:44;;;;;;;11.90;6.60;;;;;;;21.62;45.81;100760.23;108165;1287;22005;-58
2023/05/20 03:08:10;;;;;;;10.30;6.80;;;;;;;21.67;45.79;100761.08;108210;1287;21992;-60
2023/05/20 03:10:39;;;;;;;11.90;6.80;;;;;;;21.73;45.85;100765.44;108127;1287;21992;-60
2023/05/20 03:13:10;;;;;;;9.10;7.10;;;;;;;21.77;45.89;100766.30;108144;1287;22004;-58
2023/05/20 03:15:38;;;;;;;14.80;7.00;;;;;;;21.80;45.87;100767.72;108123;1287;21992;-59
2023/05/20 03:18:05;;;;;;;10.00;6.30;;;;;;;21.84;45.97;100766.41;108135;1287;21990;-59
2023/05/20 03:20:31;;;;;;;9.00;6.30;;;;;;;21.90;46.16;100765.44;108147;1287;22048;-60
2023/05/20 03:22:57;;;;;;;10.60;6.20;;;;;;;21.94;46.26;100765.55;108067;1287;21995;-59
2023/05/20 03:25:23;;;;;;;8.20;6.30;;;;;;;21.99;46.40;100767.58;108167;1288;22010;-58
2023/05/20 03:27:49;;;;;;;9.70;6.30;;;;;;;22.04;46.35;100770.91;108122;1287;21995;-59
2023/05/20 03:30:15;;;;;;;10.70;7.60;;;;;;;22.09;46.28;100775.45;108111;1287;21997;-58
2023/05/20 03:32:41;;;;;;;12.50;6.90;;;;;;;22.14;46.36;100776.46;108078;1287;23035;-59
2023/05/20 03:35:08;;;;;;;8.20;6.20;;;;;;;22.19;46.40;100779.41;108163;1287;21978;-59
2023/05/20 03:37:34;;;;;;;8.90;6.20;;;;;;;22.22;46.47;100782.44;108183;1287;22032;-60
2023/05/20 03:40:00;;;;;;;9.80;5.80;;;;;;;22.27;46.51;100784.34;108165;1287;21989;-59
2023/05/20 03:42:26;;;;;;;8.90;6.00;;;;;;;22.33;46.79;100783.98;108137;1287;21998;-61
2023/05/20 03:44:51;;;;;;;8.70;6.50;;;;;;;22.40;46.65;100783.98;108082;1287;21998;-59
2023/05/20 03:47:17;;;;;;;11.50;7.40;;;;;;;22.48;47.02;100787.16;108094;1287;21994;-58
2023/05/20 03:49:42;;;;;;;13.40;6.10;;;;;;;22.56;47.10;100785.09;108145;1287;22008;-58
2023/05/20 03:52:08;;;;;;;12.00;6.40;;;;;;;22.64;46.88;100786.59;108167;1283;21994;-58
2023/05/20 03:54:35;;;;;;;12.60;6.80;;;;;;;22.74;46.98;100789.95;108090;1287;22949;-59
2023/05/20 03:57:02;;;;;;;16.20;6.70;;;;;;;22.84;47.12;100789.26;108116;1287;22027;-59
2023/05/20 03:59:28;;;;;;;8.40;5.50;;;;;;;22.93;47.32;100788.36;108106;1287;21990;-59
2023/05/20 04:01:55;;;;;;;10.80;6.20;;;;;;;23.05;47.39;100786.75;108187;1287;21997;-59
2023/05/20 04:04:21;;;;;;;13.90;6.80;;;;;;;23.18;47.41;100783.51;108067;1287;22000;-59
2023/05/20 04:06:47;;;;;;;12.80;6.60;;;;;;;23.32;47.12;100784.72;108054;1287;22356;-57
2023/05/20 04:09:12;;;;;;;9.20;6.70;;;;;;;23.44;47.13;100787.55;108106;1287;21993;-57
2023/05/20 04:11:38;;;;;;;13.40;6.90;;;;;;;23.55;46.97;100786.00;108108;1287;21990;-60
2023/05/20 04:14:04;;;;;;;8.60;7.00;;;;;;;23.65;46.89;100787.05;108084;1287;21989;-57
2023/05/20 04:16:29;;;;;;;9.50;6.80;;;;;;;23.74;46.83;100784.70;108087;1287;21983;-60
2023/05/20 04:18:57;;;;;;;10.50;6.50;;;;;;;23.83;46.84;100786.46;108232;1287;21987;-57
2023/05/20 04:21:23;;;;;;;12.30;6.60;;;;;;;23.93;46.68;100786.75;108121;1287;22039;-59
2023/05/20 04:23:49;;;;;;;18.80;6.10;;;;;;;24.03;46.75;100787.20;108123;1287;22027;-56
2023/05/20 04:26:15;;;;;;;12.20;6.90;;;;;;;24.15;46.87;100791.70;108119;1287;22000;-59
2023/05/20 04:28:41;;;;;;;22.00;7.70;;;;;;;24.27;46.70;100792.55;108135;1287;21990;-58
2023/05/20 04:31:07;;;;;;;14.20;6.60;;;;;;;24.40;46.66;100795.34;108104;1287;22352;-59
2023/05/20 04:33:36;;;;;;;11.30;6.70;;;;;;;24.54;46.75;100800.90;108131;1287;21995;-59
2023/05/20 04:36:04;;;;;;;14.20;7.10;;;;;;;24.69;46.61;100800.31;108112;1287;21995;-57
2023/05/20 04:38:31;;;;;;;8.80;6.30;;;;;;;24.82;46.36;100796.99;108099;1287;21991;-60
2023/05/20 04:40:57;;;;;;;11.60;6.20;;;;;;;24.90;46.02;100799.45;108142;1287;23735;-58
2023/05/20 04:43:28;;;;;;;9.90;6.60;;;;;;;24.99;46.04;100804.13;108119;1287;23612;-56
2023/05/20 04:45:55;;;;;;;10.10;6.80;;;;;;;25.11;46.11;100807.81;108136;1287;21995;-59
2023/05/20 04:48:21;;;;;;;11.30;6.50;;;;;;;25.25;46.04;100806.48;108138;1287;21996;-59
2023/05/20 04:50:48;;;;;;;10.10;6.80;;;;;;;25.35;45.50;100806.36;108156;1284;21995;-58
2023/05/20 04:53:15;;;;;;;8.70;6.70;;;;;;;25.45;45.46;100806.42;108146;1287;22034;-59
2023/05/20 04:55:42;;;;;;;9.80;6.30;;;;;;;25.56;45.30;100806.98;108075;1287;23657;-59
2023/05/20 04:58:13;;;;;;;10.70;6.90;;;;;;;25.66;44.92;100803.77;108080;1287;21993;-58
2023/05/20 05:00:41;;;;;;;8.90;6.70;;;;;;;25.73;44.74;100805.44;108090;1283;21988;-60
2023/05/20 05:03:07;;;;;;;11.20;6.70;;;;;;;25.78;44.53;100804.73;108084;1287;22001;-58
2023/05/20 05:05:36;;;;;;;11.50;7.10;;;;;;;25.82;44.33;100804.44;108111;1287;22070;-59
2023/05/20 05:08:02;;;;;;;10.90;6.90;;;;;;;25.84;44.00;100810.77;108131;1287;22082;-60
2023/05/20 05:10:28;;;;;;;9.30;7.00;;;;;;;25.85;43.95;100812.70;108097;1287;21989;-57
2023/05/20 05:12:54;;;;;;;13.10;7.10;;;;;;;25.84;43.79;100813.48;108070;1287;21997;-58
2023/05/20 05:15:20;;;;;;;12.90;7.10;;;;;;;25.88;43.85;100819.52;108106;1287;22170;-57
2023/05/20 05:17:46;;;;;;;12.50;6.70;;;;;;;25.94;43.79;100821.64;108176;1287;21992;-58
2023/05/20 05:20:11;;;;;;;10.80;6.50;;;;;;;25.98;43.73;100819.02;108102;1281;22027;-58
2023/05/20 05:22:38;;;;;;;9.70;6.40;;;;;;;26.03;43.60;100817.05;108116;1287;21995;-59
2023/05/20 05:25:05;;;;;;;10.20;7.00;;;;;;;26.09;43.49;100815.18;108152;1287;22169;-58
2023/05/20 05:27:31;;;;;;;9.10;6.00;;;;;;;26.14;43.49;100814.30;108156;1287;21997;-58
2023/05/20 05:29:57;;;;;;;11.70;7.10;;;;;;;26.18;43.34;100815.14;108179;1287;21995;-58
2023/05/20 05:32:23;;;;;;;12.50;6.60;;;;;;;26.23;43.39;100814.73;108090;1287;21992;-61
2023/05/20 05:34:48;;;;;;;11.40;7.00;;;;;;;26.35;43.39;100816.77;108123;1288;22000;-58
2023/05/20 05:37:14;;;;;;;9.60;6.60;;;;;;;26.49;43.50;100819.88;108123;1287;21989;-60
2023/05/20 05:39:40;;;;;;;11.70;6.70;;;;;;;26.64;43.52;100824.05;108172;1287;22026;-60
2023/05/20 05:42:05;;;;;;;9.50;6.80;;;;;;;26.79;43.46;100824.40;108110;1287;22027;-59
2023/05/20 05:44:32;;;;;;;13.40;7.20;;;;;;;26.94;43.35;100828.16;108080;1287;21991;-59
2023/05/20 05:46:57;;;;;;;9.10;6.60;;;;;;;27.13;43.56;100828.23;108114;1287;21989;-58
2023/05/20 05:49:23;;;;;;;9.80;6.60;;;;;;;27.37;43.65;100832.02;108123;1287;21987;-60
2023/05/20 05:51:49;;;;;;;9.60;7.10;;;;;;;27.60;43.23;100827.04;108136;1287;21996;-62
2023/05/20 05:54:15;;;;;;;11.40;6.30;;;;;;;27.72;43.09;100825.39;108123;1287;22000;-60
2023/05/20 05:56:41;;;;;;;12.70;7.10;;;;;;;27.85;42.96;100830.65;108111;1287;21997;-59
2023/05/20 05:59:06;;;;;;;8.90;6.60;;;;;;;27.97;42.76;100833.89;108046;1287;21991;-59
2023/05/20 06:01:32;;;;;;;10.90;7.30;;;;;;;28.12;42.42;100833.27;108056;1283;21984;-61
2023/05/20 06:03:58;;;;;;;14.30;6.70;;;;;;;28.17;42.07;100830.02;108058;1287;22012;-60
2023/05/20 06:06:23;;;;;;;8.10;6.20;;;;;;;28.15;41.79;100827.17;108114;1287;22025;-60
2023/05/20 06:08:49;;;;;;;11.70;5.90;;;;;;;28.10;41.44;100827.45;108089;1287;22051;-60
2023/05/20 06:11:15;;;;;;;7.90;6.80;;;;;;;28.06;41.39;100828.16;108107;1287;22147;-60
2023/05/20 06:13:41;;;;;;;11.10;6.50;;;;;;;28.08;41.59;100824.38;108082;1287;22001;-60
2023/05/20 06:16:06;;;;;;;7.90;6.40;;;;;;;28.20;42.22;100823.79;108102;1287;21990;-60
2023/05/20 06:18:32;;;;;;;10.50;7.00;;;;;;;28.47;42.57;100823.45;108075;1287;21997;-60
2023/05/20 06:20:58;;;;;;;9.20;6.30;;;;;;;28.81;42.14;100821.10;108088;1287;22031;-61
2023/05/20 06:23:25;;;;;;;15.50;7.40;;;;;;;29.11;41.73;100821.55;108148;1287;21995;-60
2023/05/20 06:25:50;;;;;;;11.20;6.40;;;;;;;29.36;41.17;100821.61;108095;1287;21993;-59
2023/05/20 06:28:17;;;;;;;8.80;6.00;;;;;;;29.52;40.73;100824.09;108132;1287;22001;-60
2023/05/20 06:30:43;;;;;;;11.50;6.30;;;;;;;29.64;40.35;100822.14;108063;1287;23498;-60
2023/05/20 06:33:09;;;;;;;12.30;6.30;;;;;;;29.74;39.96;100819.46;108104;1288;21993;-60
2023/05/20 06:35:34;;;;;;;11.90;6.30;;;;;;;29.81;39.86;100818.52;108068;1287;21992;-60
2023/05/20 06:38:00;;;;;;;9.70;7.00;;;;;;;29.85;40.12;100817.06;108111;1287;21992;-61
2023/05/20 06:40:26;;;;;;;12.10;6.40;;;;;;;30.04;40.51;100813.25;108174;1287;21991;-60
2023/05/20 06:42:52;;;;;;;8.40;5.80;;;;;;;30.25;39.99;100810.40;108140;1287;21987;-60
2023/05/20 06:45:18;;;;;;;9.80;6.70;;;;;;;30.37;39.56;100809.31;108100;1287;21996;-60
2023/05/20 06:47:44;;;;;;;9.40;6.40;;;;;;;30.45;39.35;100811.66;107792;1287;22517;-60
2023/05/20 06:50:10;;;;;;;9.30;6.10;;;;;;;30.63;39.39;100806.26;108083;1287;21995;-60
2023/05/20 06:52:36;;;;;;;8.60;6.00;;;;;;;30.88;39.21;100809.27;108086;1287;21998;-60
2023/05/20 06:55:03;;;;;;;9.90;6.30;;;;;;;31.12;39.02;100813.09;108127;1283;22014;-60
2023/05/20 06:57:29;;;;;;;9.30;5.80;;;;;;;31.37;39.37;100814.05;108129;1287;21995;-60
2023/05/20 06:59:55;;;;;;;10.40;6.50;;;;;;;31.70;39.03;100810.24;108125;1287;22466;-60
2023/05/20 07:02:21;;;;;;;7.00;5.40;;;;;;;31.90;38.25;100813.04;108136;1287;22002;-60
2023/05/20 07:04:47;;;;;;;10.80;6.20;;;;;;;32.08;38.27;100814.92;108063;1287;21996;-60
2023/05/20 07:07:13;;;;;;;8.00;5.80;;;;;;;32.32;38.41;100813.57;108088;1287;21990;-61
2023/05/20 07:09:38;;;;;;;9.90;6.10;;;;;;;32.52;37.40;100810.20;107831;1287;22000;-60
2023/05/20 07:12:04;;;;;;;7.90;5.90;;;;;;;32.68;37.38;100811.73;108147;1287;21984;-59
2023/05/20 07:14:30;;;;;;;14.90;6.80;;;;;;;32.80;36.98;100816.87;108210;1287;22086;-61
2023/05/20 07:16:55;;;;;;;10.50;5.90;;;;;;;32.82;36.74;100817.90;108196;1287;22005;-59
2023/05/20 07:19:21;;;;;;;10.90;5.60;;;;;;;32.92;36.75;100820.81;107905;1287;22238;-60
2023/05/20 07:21:48;;;;;;;8.90;5.50;;;;;;;33.11;36.83;100823.77;108137;1287;21986;-60
2023/05/20 07:24:15;;;;;;;9.40;5.60;;;;;;;33.35;36.85;100822.42;108103;1287;21996;-60
2023/05/20 07:26:41;;;;;;;8.60;4.80;;;;;;;33.65;36.86;100819.38;108123;1287;21988;-61
2023/05/20 07:29:06;;;;;;;9.00;5.60;;;;;;;33.95;36.58;100817.08;108103;1287;21990;-60
2023/05/20 07:31:32;;;;;;;9.30;5.70;;;;;;;34.23;36.39;100814.06;108067;1287;23127;-61
2023/05/20 07:33:58;;;;;;;13.50;5.40;;;;;;;34.55;36.38;100810.91;108108;1287;22004;-60
2023/05/20 07:36:25;;;;;;;9.20;5.20;;;;;;;34.85;36.12;100811.86;108285;1287;22012;-62
2023/05/20 07:38:51;;;;;;;218.30;22.70;;;;;;;35.10;35.40;100811.77;108110;1288;21999;-60
2023/05/20 07:41:18;;;;;;;42.60;8.10;;;;;;;35.28;35.00;100812.08;107890;1283;23717;-59
2023/05/20 07:43:44;;;;;;;8.70;4.90;;;;;;;35.46;34.45;100813.59;108088;1287;22027;-59
2023/05/20 07:46:10;;;;;;;10.00;4.90;;;;;;;35.63;34.27;100813.89;108163;1287;22000;-58
2023/05/20 07:48:35;;;;;;;8.20;4.80;;;;;;;35.85;34.21;100810.57;108129;1287;22253;-59
2023/05/20 07:51:01;;;;;;;9.50;5.60;;;;;;;36.10;33.79;100812.67;108097;1287;21990;-59
2023/05/20 07:53:27;;;;;;;7.70;5.10;;;;;;;36.32;33.74;100812.55;108104;1287;21981;-59
2023/05/20 07:55:53;;;;;;;7.50;4.40;;;;;;;36.50;33.48;100810.64;108104;1287;21986;-60
2023/05/20 07:58:18;;;;;;;11.10;5.20;;;;;;;36.70;33.49;100810.04;108085;1287;21990;-59
2023/05/20 08:00:44;;;;;;;8.70;4.80;;;;;;;36.90;32.88;100807.61;108069;1287;21984;-59
2023/05/20 08:03:10;;;;;;;7.50;5.00;;;;;;;37.00;32.38;100809.29;108093;1287;21990;-59
2023/05/20 08:05:37;;;;;;;8.20;4.40;;;;;;;37.02;31.84;100811.23;108149;1287;22001;-59
2023/05/20 08:08:04;;;;;;;11.30;5.30;;;;;;;36.95;31.58;100816.05;108110;1287;21994;-59
2023/05/20 08:10:30;;;;;;;6.70;4.60;;;;;;;36.78;31.55;100814.33;108147;1287;22083;-59
2023/05/20 08:12:57;;;;;;;6.90;4.80;;;;;;;36.59;31.58;100807.44;108157;1284;21990;-59
2023/05/20 08:15:22;;;;;;;6.40;5.00;;;;;;;36.55;31.43;100805.37;108095;1287;21996;-59
2023/05/20 08:17:48;;;;;;;8.00;4.70;;;;;;;36.56;31.44;100799.89;107871;1287;23640;-59
2023/05/20 08:20:13;;;;;;;9.40;5.10;;;;;;;36.63;30.91;100803.85;108047;1287;22054;-59
2023/05/20 08:22:39;;;;;;;8.50;4.60;;;;;;;36.70;31.13;100804.11;108076;1287;21990;-60
2023/05/20 08:25:08;;;;;;;8.70;4.90;;;;;;;36.84;30.84;100803.36;108077;1287;21995;-60
2023/05/20 08:27:36;;;;;;;8.90;4.90;;;;;;;36.98;30.77;100803.33;108144;1287;22000;-59
2023/05/20 08:30:03;;;;;;;7.30;5.00;;;;;;;37.08;30.58;100802.39;108111;1287;22740;-60
2023/05/20 08:32:30;;;;;;;9.50;5.00;;;;;;;37.19;30.45;100802.55;108096;1287;21994;-60
2023/05/20 08:34:56;;;;;;;9.70;4.90;;;;;;;37.37;30.45;100802.84;108081;1287;22000;-59
2023/05/20 08:37:21;;;;;;;8.50;4.90;;;;;;;37.56;30.35;100800.34;108106;1287;22047;-61
2023/05/20 08:39:48;;;;;;;6.70;5.00;;;;;;;37.72;30.27;100800.32;108118;1287;21983;-60
2023/05/20 08:42:15;;;;;;;9.80;4.80;;;;;;;37.87;29.99;100793.74;108121;1287;21983;-60
2023/05/20 08:44:41;;;;;;;7.90;5.00;;;;;;;38.04;29.93;100792.81;108109;1287;21989;-60
2023/05/20 08:47:07;;;;;;;10.20;4.40;;;;;;;38.22;29.81;100790.77;107893;1287;23632;-60
2023/05/20 08:49:32;;;;;;;12.10;5.00;;;;;;;38.44;29.79;100792.23;107823;1288;21994;-62
2023/05/20 08:51:59;;;;;;;8.00;5.10;;;;;;;38.65;29.93;100788.66;108090;1287;21987;-60
2023/05/20 08:54:26;;;;;;;8.70;5.00;;;;;;;38.90;29.65;100790.14;108037;1287;149742;-60
2023/05/20 08:56:52;;;;;;;10.00;5.40;;;;;;;39.09;29.40;100786.80;107974;1283;22029;-60
2023/05/20 08:59:18;;;;;;;7.40;4.90;;;;;;;39.26;28.90;100790.16;108118;1287;21985;-60
2023/05/20 09:01:44;;;;;;;10.10;5.10;;;;;;;39.46;28.93;100787.46;108087;1287;21995;-60
2023/05/20 09:04:09;;;;;;;8.50;5.10;;;;;;;39.69;28.73;100790.33;108107;1287;22083;-61
2023/05/20 09:06:45;;;;;;;12.20;4.80;;;;;;;39.90;28.39;100788.52;108124;1281;21991;-62
2023/05/20 09:09:12;;;;;;;7.20;4.70;;;;;;;40.08;27.96;100785.52;108134;1287;21987;-62
2023/05/20 09:11:39;;;;;;;13.60;5.00;;;;;;;40.22;27.51;100789.59;108142;1287;23742;-60
2023/05/20 09:14:05;;;;;;;9.50;4.80;;;;;;;40.32;27.02;100794.23;108095;1287;21989;-61
2023/05/20 09:16:30;;;;;;;7.60;4.80;;;;;;;40.34;26.89;100792.84;108135;1287;21988;-61
2023/05/20 09:18:56;;;;;;;13.50;5.00;;;;;;;40.30;25.99;100787.09;107832;1283;22049;-59
2023/05/20 09:21:26;;;;;;;10.90;5.10;;;;;;;40.29;26.56;100783.91;108141;1287;21999;-60
2023/05/20 09:23:53;;;;;;;12.80;5.00;;;;;;;40.36;26.68;100782.88;108066;1287;22658;-60
2023/05/20 09:26:18;;;;;;;13.60;4.40;;;;;;;40.42;26.47;100780.68;108092;1288;21996;-61
2023/05/20 09:28:44;;;;;;;10.20;5.00;;;;;;;40.53;26.30;100782.29;107855;1288;21988;-59
2023/05/20 09:31:10;;;;;;;8.60;4.40;;;;;;;40.62;25.73;100783.07;108083;1287;21994;-59
2023/05/20 09:33:36;;;;;;;7.20;4.50;;;;;;;40.65;25.35;100783.92;107875;1287;22006;-60
2023/05/20 09:36:08;;;;;;;6.40;4.30;;;;;;;40.75;25.41;100778.54;108049;1287;22068;-62
2023/05/20 09:38:37;;;;;;;7.60;4.20;;;;;;;40.89;25.75;100782.23;108093;1287;21987;-62
2023/05/20 09:41:06;;;;;;;8.40;4.40;;;;;;;41.02;25.53;100782.34;108065;1287;22164;-61
2023/05/20 09:43:33;;;;;;;5.60;4.20;;;;;;;41.10;25.23;100774.58;108050;1287;21987;-61
2023/05/20 09:46:00;;;;;;;8.60;4.20;;;;;;;41.14;25.03;100775.41;108074;1287;22183;-61
2023/05/20 09:48:26;;;;;;;8.90;4.20;;;;;;;41.17;24.92;100769.92;107845;1287;21999;-62
2023/05/20 09:50:53;;;;;;;9.00;4.70;;;;;;;41.22;24.85;100768.31;108092;1287;22497;-61
2023/05/20 09:53:19;;;;;;;6.60;4.60;;;;;;;41.34;24.69;100768.17;108112;1287;23082;-60
2023/05/20 09:55:45;;;;;;;8.50;4.50;;;;;;;41.42;24.40;100768.39;107837;1287;21990;-62
2023/05/20 09:58:10;;;;;;;8.90;4.20;;;;;;;41.62;24.35;100767.21;107833;1287;21999;-61
2023/05/20 10:00:36;;;;;;;8.40;4.20;;;;;;;41.76;24.21;100763.91;107853;1287;21985;-60
2023/05/20 10:03:01;;;;;;;7.50;4.10;;;;;;;41.78;23.92;100756.52;107855;1283;21990;-61
2023/05/20 10:05:29;;;;;;;7.80;4.20;;;;;;;41.82;23.53;100759.05;107907;1287;21998;-61
2023/05/20 10:08:13;;;;;;;8.60;4.60;;;;;;;41.93;23.56;100751.84;107942;1277;21995;-61
2023/05/20 10:10:54;;;;;;;7.50;4.90;;;;;;;42.00;23.32;100747.40;108085;1287;21990;-63
2023/05/20 10:13:28;;;;;;;7.90;4.60;;;;;;;42.01;23.25;100739.66;108110;1285;21989;-60
2023/05/20 10:15:53;;;;;;;9.10;4.70;;;;;;;42.09;23.34;100738.91;107884;1281;21984;-62
2023/05/20 10:18:28;;;;;;;9.60;5.00;;;;;;;42.24;23.10;100739.42;108086;1287;21993;-60
2023/05/20 10:20:53;;;;;;;12.00;4.80;;;;;;;42.36;23.00;100734.21;108122;1286;23078;-61
2023/05/20 10:23:22;;;;;;;8.20;4.50;;;;;;;42.50;22.89;100733.46;108073;1277;21984;-61
2023/05/20 10:25:52;;;;;;;7.50;4.20;;;;;;;42.61;22.69;100733.59;108075;1287;21995;-61
2023/05/20 10:28:28;;;;;;;7.30;4.40;;;;;;;42.67;22.84;100728.96;108041;1287;22589;-60
2023/05/20 10:30:53;;;;;;;7.00;4.40;;;;;;;42.77;22.79;100726.43;108090;1287;22160;-60
2023/05/20 10:33:19;;;;;;;6.70;4.10;;;;;;;42.90;22.04;100723.83;108128;1287;21986;-59
2023/05/20 10:35:51;;;;;;;12.40;3.50;;;;;;;43.02;21.73;100718.80;108171;1287;21992;-60
2023/05/20 10:38:17;;;;;;;6.10;4.00;;;;;;;43.03;21.40;100710.48;108151;1287;21983;-60
2023/05/20 10:40:42;;;;;;;4.90;3.60;;;;;;;43.05;21.32;100711.18;107852;1287;22026;-60
2023/05/20 10:43:10;;;;;;;9.10;3.80;;;;;;;43.12;21.29;100711.70;108048;1287;21996;-61
2023/05/20 10:45:50;;;;;;;12.50;4.10;;;;;;;43.16;21.22;100711.41;108136;1287;24363;-61
2023/05/20 10:48:34;;;;;;;6.40;3.70;;;;;;;43.15;20.93;100711.11;108084;1287;21996;-60
2023/05/20 10:51:04;;;;;;;5.40;3.50;;;;;;;43.05;20.09;100711.85;108067;1287;21992;-61
2023/05/20 10:53:40;;;;;;;8.70;3.80;;;;;;;42.92;20.70;100713.59;108072;1288;22080;-61
2023/05/20 10:56:16;;;;;;;9.30;4.00;;;;;;;42.82;20.62;100710.27;108127;1287;21989;-61
2023/05/20 10:58:41;;;;;;;10.10;4.00;;;;;;;42.73;20.30;100713.16;108063;1287;21996;-59
2023/05/20 11:01:07;;;;;;;9.70;4.00;;;;;;;42.61;20.06;100717.64;108104;1287;21995;-61
2023/05/20 11:03:34;;;;;;;9.30;3.70;;;;;;;42.36;20.11;100712.59;107775;1288;21988;-60
2023/05/20 11:05:59;;;;;;;8.60;3.80;;;;;;;42.09;20.30;100710.33;108112;1287;22025;-61
2023/05/20 11:08:30;;;;;;;6.20;3.80;;;;;;;41.78;20.14;100711.92;108127;1288;21992;-60
2023/05/20 11:10:56;;;;;;;9.10;4.20;;;;;;;41.41;20.17;100713.80;108105;1287;22048;-60